Lemmer, Netherlands
Current Conditions -  °F | °C
As of 5:25 PM on Saturday 25 Oct 2014 (Local Time) from EHLW Reporting Station
Overcast Overcast  
Wind Chill: 55°   Ceiling: 4700
Heat Index: 55°   Visibility: 6mi
Dew Point: 48°   Wind: 6mph
Humidity: 77%   Direction: 230°SW
Pressure: 30.03"   Gusts: NA
Location:  52.85°N, 5.71°E
Report Text: EHLW 251525Z AUTO 23005KT 9999 OVC047 13/09 Q1017 BLU
Loading
Personal Weather Stations






























Interactive Weather Map
Tropical Storm Tracking
New forecast layout! Learn more

10-Day Weather Forecast

Advertisements
Track Severe Weather on mobile